Thunder radar more information blitzortung!


Radar de pluja more information rain snow radar


Visita la nostra xarxa de llocs de meteo:

Template documentation
and downloads

And another site



No particular awareness of the weather is required.    There are no Weather-warnings

Pagina Historial Weather Underground text

Diari Resum Novembre 1, 2017 Unitats:  Mètric    Imperial   Tant
« Previous Dia
SegĂźent Dia »
Diari Setmana Mensual Anual Personalitzada
  Maxima: Minima: Media:
Temperatura: -17.8 °C -11.9 °C -9.2 °C
Punt de rosada: -17.8 °C -14.1 °C -11.6 °C
Humitat: Humidity % 61 % 75 %
Wind Speed: 0 km/h 0 km/h 5.1 km/h
RĂ fegues de vent: 0 km/h - -
Vent:- - South
Pression baro: 0 hPa 34567.7 hPa -
Precipitacions: 0 mm    
Historical Graphs
 
 
Dades de taula per Novembre 1, 2017
Temps Temperatura Punt de rosada Pression baro Vent Wind Speed RĂ fegues de vent Humitat Rainfall Rate (Hourly)
-17.8 °C -17.8 °C 0 hPa Calm     Humidity % 0 mm
00:03 -11.9 °C -14.1 °C 34669.3 hPa SW 6 km/h 6 km/h 77 % 0 mm
03:25 -10.7 °C -12.8 °C 34703.1 hPa Calm   2.6 km/h 78 % 0 mm
03:35 -10.7 °C -13 °C 34703.1 hPa East 5.1 km/h 5.1 km/h 76 % 0 mm
03:45 -10.6 °C -12.8 °C 34703.1 hPa SE 2.6 km/h 5.1 km/h 77 % 0 mm
03:55 -10.5 °C -12.8 °C 34703.1 hPa ESE 2.6 km/h 5.1 km/h 76 % 0 mm
10:06 -10.6 °C -13 °C 34703.1 hPa SE 6 km/h 6 km/h 75 % 0 mm
10:07 -10.6 °C -13 °C 34703.1 hPa SE 6 km/h 6 km/h 75 % 0 mm
10:12 -10.7 °C -13.1 °C 34703.1 hPa ESE 6 km/h 6 km/h 75 % 0 mm
10:17 -10.6 °C -12.9 °C 34703.1 hPa ESE 6 km/h 6 km/h 75 % 0 mm
10:22 -10.4 °C -12.7 °C 34703.1 hPa ENE 6 km/h 6 km/h 76 % 0 mm
10:27 -10.4 °C -12.8 °C 34703.1 hPa NNE 6 km/h 6 km/h 75 % 0 mm
10:32 -10.3 °C -12.7 °C 34703.1 hPa NNE 6 km/h 6 km/h 75 % 0 mm
10:37 -10.3 °C -12.8 °C 34703.1 hPa ENE 9 km/h 9 km/h 74 % 0 mm
10:42 -10 °C -12.6 °C 34703.1 hPa NNW 9 km/h 9 km/h 74 % 0 mm
10:47 -9.8 °C -12.3 °C 34703.1 hPa ENE 3.1 km/h 3.1 km/h 74 % 0 mm
10:52 -9.7 °C -12.2 °C 34703.1 hPa NW 6 km/h 6 km/h 74 % 0 mm
10:57 -9.8 °C -12.6 °C 34703.1 hPa NNE 6.3 km/h 6.8 km/h 72 % 0 mm
11:02 -10.2 °C -12.9 °C 34703.1 hPa ENE 11.9 km/h 11.9 km/h 72 % 0 mm
11:07 -10.1 °C -12.7 °C 34703.1 hPa NNE 3.1 km/h 3.1 km/h 73 % 0 mm
11:12 -10.1 °C -12.8 °C 34703.1 hPa NNE 6.8 km/h 8 km/h 72 % 0 mm
11:17 -10 °C -12.7 °C 34703.1 hPa ENE 6.3 km/h 6.3 km/h 72 % 0 mm
11:22 -10 °C -12.7 °C 34669.3 hPa WSW 6 km/h 6 km/h 72 % 0 mm
11:27 -9.8 °C -12.6 °C 34669.3 hPa ENE 3.1 km/h   72 % 0 mm
11:32 -9.7 °C -12.5 °C 34669.3 hPa ESE 6.8 km/h 6.8 km/h 72 % 0 mm
11:37 -9.6 °C -12.4 °C 34669.3 hPa NNE 6 km/h 6 km/h 72 % 0 mm
11:42 -9.4 °C -12.3 °C 34669.3 hPa WSW 9 km/h 9 km/h 71 % 0 mm
11:47 -9.2 °C -12.2 °C 34669.3 hPa ESE 9 km/h 9 km/h 70 % 0 mm
11:52 -9.1 °C -12.1 °C 34669.3 hPa ENE 3.7 km/h 3.7 km/h 70 % 0 mm
11:57 -9.2 °C -12.3 °C 34669.3 hPa SE 9 km/h 9 km/h 69 % 0 mm
12:02 -8.9 °C -11.9 °C 34669.3 hPa ESE 5.1 km/h 5.1 km/h 70 % 0 mm
12:07 -8.7 °C -11.7 °C 34669.3 hPa ENE 6 km/h 6 km/h 70 % 0 mm
12:12 -8.6 °C -11.8 °C 34669.3 hPa ENE 6.3 km/h 6.3 km/h 69 % 0 mm
12:17 -8.6 °C -11.8 °C 34669.3 hPa ESE 6 km/h 6 km/h 68 % 0 mm
12:22 -8.4 °C -11.8 °C 34669.3 hPa ENE 9 km/h 9 km/h 68 % 0 mm
12:27 -8.5 °C -11.8 °C 34669.3 hPa SE 9 km/h 9 km/h 68 % 0 mm
12:32 -8.3 °C -11.6 °C 34669.3 hPa ESE 6 km/h 6 km/h 68 % 0 mm
12:37 -8.1 °C -11.4 °C 34669.3 hPa SSE 9 km/h 9 km/h 68 % 0 mm
12:42 -8 °C -11.4 °C 34669.3 hPa SE 9 km/h 9 km/h 67 % 0 mm
12:47 -8 °C -11.3 °C 34669.3 hPa WSW 6 km/h   68 % 0 mm
12:52 -7.9 °C -11.4 °C 34669.3 hPa ENE 7.6 km/h 7.6 km/h 67 % 0 mm
12:57 -7.9 °C -11.4 °C 34669.3 hPa ENE 9.3 km/h 9.3 km/h 67 % 0 mm
13:02 -7.7 °C -11.2 °C 34669.3 hPa SSE 6.8 km/h 6.8 km/h 67 % 0 mm
13:07 -7.8 °C -11.3 °C 34635.4 hPa East 9 km/h 9 km/h 67 % 0 mm
13:12 -7.7 °C -11.2 °C 34635.4 hPa SW 6 km/h 6 km/h 67 % 0 mm
13:17 -7.6 °C -11 °C 34635.4 hPa SSE 9 km/h   67 % 0 mm
13:22 -7.6 °C -11 °C 34635.4 hPa East 3.1 km/h 3.1 km/h 67 % 0 mm
13:27 -7.6 °C -11.2 °C 34635.4 hPa SSE 15 km/h 15 km/h 66 % 0 mm
13:32 -7.4 °C -10.9 °C 34635.4 hPa South 11.1 km/h 11.1 km/h 67 % 0 mm
13:37 -7.2 °C -10.8 °C 34635.4 hPa SW 9 km/h 9 km/h 66 % 0 mm
13:42 -7 °C -10.7 °C 34635.4 hPa SSW 11.9 km/h 11.9 km/h 65 % 0 mm
13:47 -7.2 °C -10.9 °C 34635.4 hPa ESE 6 km/h 6 km/h 65 % 0 mm
13:52 -7.2 °C -10.9 °C 34635.4 hPa SSE 6 km/h 6 km/h 65 % 0 mm
13:57 -7.1 °C -10.9 °C 34635.4 hPa South 9 km/h 9 km/h 65 % 0 mm
14:02 -6.9 °C -10.7 °C 34635.4 hPa West 7.6 km/h 7.6 km/h 65 % 0 mm
14:07 -6.9 °C -10.8 °C 34601.5 hPa SW 11.9 km/h 11.9 km/h 64 % 0 mm
14:12 -7 °C -10.9 °C 34601.5 hPa SW 15 km/h 15 km/h 64 % 0 mm
14:17 -7 °C -10.9 °C 34601.5 hPa WSW 6.3 km/h 6.3 km/h 64 % 0 mm
14:22 -6.8 °C -10.9 °C 34567.7 hPa SE 15 km/h 15 km/h 63 % 0 mm
14:27 -6.7 °C -10.7 °C 34567.7 hPa WSW 6.3 km/h 6.3 km/h 63 % 0 mm
14:32 -6.6 °C -10.7 °C 34567.7 hPa SSW 5.1 km/h 5.1 km/h 62 % 0 mm
14:37 -6.3 °C -10.4 °C 34601.5 hPa SW 11.9 km/h 11.9 km/h 63 % 0 mm
14:42 -6.4 °C -10.6 °C 34601.5 hPa SW 11.9 km/h 11.9 km/h 62 % 0 mm
14:47 -6.7 °C -11 °C 34601.5 hPa South 3.1 km/h 3.1 km/h 61 % 0 mm
14:52 -6.7 °C -10.7 °C 34601.5 hPa SW 9 km/h 9 km/h 63 % 0 mm
14:57 -6.8 °C -10.9 °C 34601.5 hPa SW 9.3 km/h 9.3 km/h 62 % 0 mm
15:02 -6.9 °C -11.1 °C 34601.5 hPa SW 6 km/h 6.3 km/h 62 % 0 mm
15:07 -6.9 °C -11.1 °C 34601.5 hPa SW 8 km/h 8 km/h 62 % 0 mm
15:12 -6.7 °C -10.9 °C 34601.5 hPa SW 9 km/h 9 km/h 62 % 0 mm
15:17 -6.5 °C -10.8 °C 34601.5 hPa SW 27.2 km/h 27.2 km/h 61 % 0 mm
15:22 -6.6 °C -10.9 °C 34601.5 hPa SW 17.9 km/h 17.9 km/h 61 % 0 mm
15:27 -6.6 °C -10.9 °C 34601.5 hPa SW 17.9 km/h 17.9 km/h 61 % 0 mm
15:28 -6.6 °C -10.9 °C 34601.5 hPa WNW 17.9 km/h 17.9 km/h 61 % 0 mm
15:33 -6.9 °C -11.1 °C 34601.5 hPa SW 15 km/h 15 km/h 62 % 0 mm
15:38 -6.9 °C -11.1 °C 34601.5 hPa SSW 6 km/h   62 % 0 mm
15:43 -6.7 °C -11 °C 34601.5 hPa SW 11.9 km/h 11.9 km/h 61 % 0 mm
15:48 -6.7 °C -11 °C 34601.5 hPa SW 17.9 km/h 17.9 km/h 61 % 0 mm
15:53 -6.8 °C -11 °C 34601.5 hPa SSW 20.9 km/h 20.9 km/h 62 % 0 mm
15:58 -6.9 °C -11.1 °C 34601.5 hPa SW 11.9 km/h 11.9 km/h 62 % 0 mm
16:03 -7.1 °C -11.2 °C 34601.5 hPa SW 15 km/h 15 km/h 62 % 0 mm
16:08 -7.1 °C -11.1 °C 34601.5 hPa South 11.9 km/h 11.9 km/h 63 % 0 mm
16:13 -7.2 °C -11.2 °C 34601.5 hPa SW 15 km/h 15 km/h 63 % 0 mm
16:18 -7.2 °C -11.2 °C 34601.5 hPa South 11.9 km/h 11.9 km/h 63 % 0 mm
16:23 -7.2 °C -11.2 °C 34601.5 hPa SSW 15 km/h 15 km/h 63 % 0 mm
16:28 -7.3 °C -11 °C 34601.5 hPa SW 11.9 km/h 11.9 km/h 65 % 0 mm
16:33 -7.3 °C -11.1 °C 34601.5 hPa SW 15 km/h 15 km/h 65 % 0 mm
16:38 -7.6 °C -11.3 °C 34601.5 hPa WSW 17.9 km/h 17.9 km/h 65 % 0 mm
16:43 -7.6 °C -11.2 °C 34601.5 hPa South 9 km/h 9.3 km/h 66 % 0 mm
16:48 -7.7 °C -11.3 °C 34601.5 hPa SW 23.8 km/h 23.8 km/h 66 % 0 mm
16:53 -7.7 °C -11.3 °C 34601.5 hPa WSW 11.9 km/h 11.9 km/h 66 % 0 mm
16:58 -7.8 °C -11.3 °C 34601.5 hPa SW 15 km/h 15 km/h 67 % 0 mm
17:03 -7.8 °C -11.3 °C 34601.5 hPa WSW 15 km/h 15 km/h 67 % 0 mm
17:08 -7.9 °C -11.3 °C 34601.5 hPa SSW 8.5 km/h 8.5 km/h 67 % 0 mm
17:13 -8 °C -11.3 °C 34601.5 hPa SW 11.9 km/h 11.9 km/h 68 % 0 mm
17:18 -8.1 °C -11.4 °C 34601.5 hPa SSW 15 km/h 15 km/h 68 % 0 mm
17:23 -8.2 °C -11.5 °C 34601.5 hPa SW 11.9 km/h 11.9 km/h 68 % 0 mm
17:28 -8.3 °C -11.4 °C 34601.5 hPa SW 11.9 km/h 11.9 km/h 69 % 0 mm
17:33 -8.3 °C -11.4 °C 34601.5 hPa SW 11.9 km/h 11.9 km/h 70 % 0 mm
17:38 -8.4 °C -11.4 °C 34601.5 hPa WSW 9 km/h 9 km/h 71 % 0 mm
17:43 -8.5 °C -11.3 °C 34601.5 hPa WSW 6 km/h 6 km/h 72 % 0 mm
17:48 -8.6 °C -11.3 °C 34601.5 hPa SW 11.9 km/h 11.9 km/h 72 % 0 mm
17:53 -8.6 °C -11.3 °C 34635.4 hPa SW 6 km/h 6 km/h 73 % 0 mm
17:58 -8.7 °C -11.3 °C 34635.4 hPa SW 6.3 km/h 6.3 km/h 73 % 0 mm
18:03 -8.7 °C -11.3 °C 34635.4 hPa WSW 6 km/h 6 km/h 74 % 0 mm
18:08 -8.8 °C -11.3 °C 34567.7 hPa WSW 6 km/h 6 km/h 74 % 0 mm
18:13 -8.8 °C -11.4 °C 34567.7 hPa WSW 6 km/h 6 km/h 74 % 0 mm
18:15 -10.3 °C -11.7 °C 34635.4 hPa Calm     85 % 0 mm
18:18 -8.9 °C -11.3 °C 34567.7 hPa WSW 3.7 km/h 3.7 km/h 75 % 0 mm
18:23 -8.9 °C -11.3 °C 34601.5 hPa SW 3.1 km/h   75 % 0 mm
18:25 -10.3 °C -11.7 °C 34601.5 hPa Calm   2.6 km/h 85 % 0 mm
18:28 -8.9 °C -11.3 °C 34601.5 hPa SW 3.1 km/h   76 % 0 mm
18:33 -9 °C -11.3 °C 34601.5 hPa WSW 3.1 km/h   76 % 0 mm
18:35 -10.3 °C -11.7 °C 34601.5 hPa Calm     85 % 0 mm
18:38 -9.1 °C -11.4 °C 34601.5 hPa Calm     76 % 0 mm
18:43 -9.1 °C -11.4 °C 34601.5 hPa Calm     76 % 0 mm
18:45 -10.4 °C -11.8 °C 34601.5 hPa Calm   5.1 km/h 85 % 0 mm
18:48 -9.1 °C -11.3 °C 34601.5 hPa WSW 4.2 km/h 4.2 km/h 77 % 0 mm
18:53 -9.1 °C -11.3 °C 34601.5 hPa West 4.2 km/h 4.2 km/h 77 % 0 mm
18:55 -10.4 °C -11.8 °C 34601.5 hPa Calm   5.1 km/h 85 % 0 mm
18:58 -9.1 °C -11.3 °C 34601.5 hPa West 6 km/h 6 km/h 77 % 0 mm
19:03 -9.2 °C -11.4 °C 34601.5 hPa WSW 3.1 km/h 3.1 km/h 77 % 0 mm
19:05 -10.4 °C -11.7 °C 34601.5 hPa Calm   5.1 km/h 86 % 0 mm
19:08 -9.2 °C -11.3 °C 34601.5 hPa Calm     78 % 0 mm
19:13 -9.2 °C -11.3 °C 34601.5 hPa Calm     78 % 0 mm
19:15 -10.4 °C -11.7 °C 34567.7 hPa Calm     86 % 0 mm
19:18 -9.3 °C -11.4 °C 34601.5 hPa Calm     78 % 0 mm
19:23 -9.4 °C -11.5 °C 34601.5 hPa Calm     78 % 0 mm
19:25 -10.5 °C -11.8 °C 34601.5 hPa NE 2.6 km/h 5.1 km/h 86 % 0 mm
19:28 -9.4 °C -11.4 °C 34601.5 hPa Calm     79 % 0 mm
19:33 -9.4 °C -11.4 °C 34601.5 hPa Calm     79 % 0 mm
19:35 -10.5 °C -11.8 °C 34601.5 hPa Calm   5.1 km/h 86 % 0 mm
19:38 -9.4 °C -11.4 °C 34601.5 hPa Calm     79 % 0 mm
19:43 -9.5 °C -11.5 °C 34601.5 hPa Calm     79 % 0 mm
19:45 -10.6 °C -11.7 °C 34567.7 hPa Calm     87 % 0 mm
19:48 -9.5 °C -11.5 °C 34601.5 hPa West 2.3 km/h   79 % 0 mm
19:53 -9.5 °C -11.5 °C 34601.5 hPa West 3.7 km/h 3.7 km/h 79 % 0 mm
19:55 -10.6 °C -11.7 °C 34601.5 hPa Calm   5.1 km/h 87 % 0 mm
19:58 -9.5 °C -11.5 °C 34601.5 hPa Calm     79 % 0 mm
20:03 -9.6 °C -11.4 °C 34601.5 hPa Calm     80 % 0 mm
20:05 -10.6 °C -11.7 °C 34601.5 hPa Calm     87 % 0 mm
20:08 -9.5 °C -11.4 °C 34601.5 hPa Calm     80 % 0 mm
20:13 -9.5 °C -11.4 °C 34601.5 hPa Calm     80 % 0 mm
20:15 -10.5 °C -11.7 °C 34601.5 hPa Calm     87 % 0 mm
20:18 -9.5 °C -11.4 °C 34601.5 hPa Calm     80 % 0 mm
20:23 -9.5 °C -11.4 °C 34601.5 hPa Calm     80 % 0 mm
20:25 -10.5 °C -11.7 °C 34601.5 hPa Calm   5.1 km/h 87 % 0 mm
20:28 -9.6 °C -11.4 °C 34601.5 hPa Calm     80 % 0 mm
20:33 -9.7 °C -11.6 °C 34601.5 hPa West 3.1 km/h 3.1 km/h 80 % 0 mm
20:35 -10.5 °C -11.7 °C 34601.5 hPa SW 2.6 km/h 5.1 km/h 87 % 0 mm
20:38 -9.7 °C -11.6 °C 34601.5 hPa Calm     80 % 0 mm
20:43 -9.7 °C -11.6 °C 34601.5 hPa Calm     80 % 0 mm
20:45 -10.5 °C -11.7 °C 34567.7 hPa Calm     87 % 0 mm
20:48 -9.8 °C -11.7 °C 34601.5 hPa Calm     80 % 0 mm
20:53 -9.8 °C -11.7 °C 34601.5 hPa Calm     80 % 0 mm
20:55 -10.6 °C -11.7 °C 34601.5 hPa Calm   5.1 km/h 87 % 0 mm
20:58 -9.8 °C -11.6 °C 34601.5 hPa Calm     81 % 0 mm
21:03 -9.8 °C -11.7 °C 34601.5 hPa West 3.1 km/h 3.1 km/h 80 % 0 mm
21:05 -10.6 °C -11.7 °C 34601.5 hPa Calm     88 % 0 mm
21:08 -9.8 °C -11.6 °C 34601.5 hPa Calm     81 % 0 mm
21:13 -9.8 °C -11.6 °C 34601.5 hPa Calm     81 % 0 mm
21:15 -10.7 °C -11.8 °C 34601.5 hPa Calm     88 % 0 mm
21:18 -9.8 °C -11.6 °C 34601.5 hPa Calm     81 % 0 mm
21:23 -9.9 °C -11.6 °C 34601.5 hPa Calm     82 % 0 mm
21:25 -10.7 °C -11.8 °C 34601.5 hPa Calm   2.6 km/h 88 % 0 mm
21:28 -9.9 °C -11.6 °C 34601.5 hPa Calm     82 % 0 mm
21:33 -10 °C -11.7 °C 34601.5 hPa Calm     82 % 0 mm
21:35 -10.7 °C -11.8 °C 34601.5 hPa Calm   2.6 km/h 88 % 0 mm
21:38 -10 °C -11.7 °C 34635.4 hPa Calm     82 % 0 mm
21:43 -10 °C -11.7 °C 34635.4 hPa Calm     82 % 0 mm
21:45 -10.8 °C -11.8 °C 34601.5 hPa Calm     88 % 0 mm
21:48 -10.1 °C -11.7 °C 34635.4 hPa Calm     82 % 0 mm
21:53 -10 °C -11.7 °C 34635.4 hPa West 3.1 km/h 3.1 km/h 82 % 0 mm
21:55 -10.8 °C -11.8 °C 34601.5 hPa West 5.1 km/h 5.1 km/h 88 % 0 mm
21:58 -10 °C -11.6 °C 34635.4 hPa Calm     83 % 0 mm
22:03 -10.1 °C -11.6 °C 34635.4 hPa Calm     83 % 0 mm
22:05 -10.8 °C -11.8 °C 34601.5 hPa North 2.6 km/h 5.1 km/h 88 % 0 mm
22:08 -10.1 °C -11.6 °C 34635.4 hPa Calm     83 % 0 mm
22:13 -10.1 °C -11.6 °C 34635.4 hPa Calm     83 % 0 mm
22:15 -10.8 °C -11.8 °C 34601.5 hPa Calm   2.6 km/h 89 % 0 mm
22:18 -10.1 °C -11.6 °C 34635.4 hPa Calm     83 % 0 mm
22:23 -10 °C -11.6 °C 34635.4 hPa Calm     83 % 0 mm
22:25 -10.8 °C -11.8 °C 34567.7 hPa Calm   2.6 km/h 89 % 0 mm
22:28 -10 °C -11.6 °C 34635.4 hPa WSW 6 km/h 6 km/h 83 % 0 mm
22:33 -9.9 °C -11.5 °C 34635.4 hPa WSW 3.1 km/h 3.1 km/h 83 % 0 mm
22:35 -11.1 °C -12.2 °C 34567.7 hPa West 5.1 km/h 7.7 km/h 87 % 0 mm
22:38 -10 °C -11.6 °C 34635.4 hPa Calm     83 % 0 mm
22:43 -10 °C -11.6 °C 34635.4 hPa Calm     83 % 0 mm
22:45 -11.1 °C -12.1 °C 34567.7 hPa West 5.1 km/h 7.7 km/h 88 % 0 mm
22:48 -10 °C -11.6 °C 34635.4 hPa WSW 3.7 km/h 3.7 km/h 83 % 0 mm
22:53 -10 °C -11.6 °C 34635.4 hPa Calm     83 % 0 mm
22:55 -11.1 °C -12.3 °C 34567.7 hPa SW 5.1 km/h 10.3 km/h 87 % 0 mm
22:58 -10 °C -11.5 °C 34635.4 hPa SE 3.7 km/h 3.7 km/h 84 % 0 mm
23:03 -10.1 °C -11.6 °C 34635.4 hPa Calm     84 % 0 mm
23:05 -11 °C -12 °C 34567.7 hPa Calm   5.1 km/h 89 % 0 mm
23:08 -10.1 °C -11.6 °C 34635.4 hPa Calm     84 % 0 mm
23:13 -10 °C -11.5 °C 34635.4 hPa Calm     84 % 0 mm
23:15 -11.1 °C -12.1 °C 34567.7 hPa Calm     89 % 0 mm
23:18 -10 °C -11.5 °C 34635.4 hPa Calm     84 % 0 mm
23:23 -10.1 °C -11.6 °C 34635.4 hPa SW 3.1 km/h   84 % 0 mm
23:25 -11.1 °C -12.1 °C 34567.7 hPa WSW 2.6 km/h 5.1 km/h 89 % 0 mm
23:28 -10.1 °C -11.6 °C 34635.4 hPa WNW 3.1 km/h   84 % 0 mm
23:33 -10.1 °C -11.6 °C 34635.4 hPa Calm     84 % 0 mm
23:35 -11.1 °C -12.1 °C 34567.7 hPa Calm   2.6 km/h 89 % 0 mm
23:38 -10.1 °C -11.6 °C 34635.4 hPa Calm     84 % 0 mm
23:43 -10.1 °C -11.6 °C 34635.4 hPa Calm     84 % 0 mm
23:45 -11 °C -12 °C 34567.7 hPa Calm     89 % 0 mm
23:48 -10.1 °C -11.6 °C 34635.4 hPa Calm     84 % 0 mm
23:53 -10.2 °C -11.6 °C 34601.5 hPa Calm     84 % 0 mm
23:55 -11.1 °C -12.1 °C 34567.7 hPa WSW 2.6 km/h 2.6 km/h 89 % 0 mm
23:58 -10.2 °C -11.6 °C 34601.5 hPa Calm     85 % 0 mm
Meteo Sesrovires
Elogis d' Weather Underground - 1.5 mb

Guio original per  Jim McMurry - jmcmurry@mwt.net Adaptat per a la plantilla per  Wim van der Kuil - Leuven-Template.eu

Trobareu la nostra informacio del temps tambe a:

Weather Underground

AWEKAS